Terminal Aerodrome Forecast
Issued by NWS Wilmington, OH

Current Version | Previous Version | Graphics & Text | Print | Product List | Glossary On
Versions: 1 2 3 4 5 6 7 8 9 10 11 12 13 14 15 16 17 18 19
000
FTUS41 KILN 171728
TAFDAY
TAF
KDAY 171728Z 1718/1818 19005KT P6SM FEW040
     FM180000 19003KT P6SM SCT250
     FM180800 VRB02KT P6SM SCT070 BKN250
     FM181300 18003KT P6SM SCT040 BKN150=

USA.gov is the U.S. government's official web portal to all federal, state and local government web resources and services.